Time;durP1;ratioP1;P1;durP2;ratioP2;P2;SDS_P1;SDS_P2;PMS_P1;PMS_P2;Temp;Humidity;BMP_temperature;BMP_pressure;BME280_temperature;BME280_humidity;BME280_pressure;Samples;Min_cycle;Max_cycle;Signal;HPM_P1;HPM_P2
2022/12/24 00:00:44;;;;;;;26.13;17.97;;;;;;;6.69;100.00;99332.59;1735905;80;21451;-81
2022/12/24 00:03:13;;;;;;;26.87;17.40;;;;;;;6.67;100.00;99317.94;1758278;80;21090;-81
2022/12/24 00:05:40;;;;;;;22.57;15.30;;;;;;;6.66;100.00;99319.70;1725174;79;21114;-81
2022/12/24 00:08:07;;;;;;;24.20;15.80;;;;;;;6.67;100.00;99317.48;1749504;80;21065;-81
2022/12/24 00:10:34;;;;;;;18.90;13.23;;;;;;;6.67;100.00;99320.54;1760673;79;20900;-81
2022/12/24 00:13:01;;;;;;;19.97;14.40;;;;;;;6.64;100.00;99322.80;1738663;80;21090;-81
2022/12/24 00:15:28;;;;;;;18.77;12.37;;;;;;;6.64;100.00;99318.90;1773012;78;21516;-81
2022/12/24 00:17:56;;;;;;;18.17;12.10;;;;;;;6.66;100.00;99319.70;1777279;80;21145;-81
2022/12/24 00:20:23;;;;;;;16.67;12.00;;;;;;;6.65;100.00;99318.44;1752712;80;21082;-81
2022/12/24 00:22:50;;;;;;;17.17;11.83;;;;;;;6.63;100.00;99314.61;1780954;80;21026;-81
2022/12/24 00:25:18;;;;;;;17.20;12.40;;;;;;;6.65;100.00;99319.74;1780993;80;21030;-81
2022/12/24 00:27:45;;;;;;;13.83;10.10;;;;;;;6.62;100.00;99312.92;1784979;78;21039;-82
2022/12/24 00:30:12;;;;;;;12.90;9.53;;;;;;;6.61;100.00;99311.20;1753398;80;21010;-82
2022/12/24 00:32:39;;;;;;;12.97;9.33;;;;;;;6.62;100.00;99313.35;1762134;80;21118;-81
2022/12/24 00:35:07;;;;;;;11.97;9.30;;;;;;;6.60;100.00;99314.73;1776927;79;20972;-81
2022/12/24 00:37:35;;;;;;;14.27;10.20;;;;;;;6.58;100.00;99307.87;1748642;80;21282;-81
2022/12/24 00:40:03;;;;;;;12.43;8.50;;;;;;;6.55;100.00;99308.00;1763829;80;20987;-81
2022/12/24 00:42:30;;;;;;;13.47;9.90;;;;;;;6.51;100.00;99309.01;1744411;80;21098;-81
2022/12/24 00:44:57;;;;;;;13.87;9.03;;;;;;;6.46;100.00;99304.84;1769202;80;21320;-81
2022/12/24 00:47:25;;;;;;;15.40;11.27;;;;;;;6.45;100.00;99312.23;1775116;80;21549;-81
2022/12/24 00:49:52;;;;;;;33.90;24.00;;;;;;;6.43;100.00;99308.02;1775476;80;20995;-81
2022/12/24 00:52:19;;;;;;;22.67;16.77;;;;;;;6.41;100.00;99317.63;1776722;80;21505;-82
2022/12/24 00:54:46;;;;;;;19.43;14.03;;;;;;;6.42;100.00;99316.72;1774214;79;20981;-81
2022/12/24 00:57:13;;;;;;;17.90;13.07;;;;;;;6.42;100.00;99312.81;1769786;80;21128;-82
2022/12/24 00:59:41;;;;;;;17.77;13.03;;;;;;;6.42;100.00;99312.81;1761135;79;21023;-81
2022/12/24 01:02:08;;;;;;;16.07;12.07;;;;;;;6.45;100.00;99313.53;1751906;79;20996;-82
2022/12/24 01:07:21;;;;;;;17.10;12.17;;;;;;;6.46;100.00;99307.44;1774252;80;21019;-82
2022/12/24 01:09:48;;;;;;;15.33;11.53;;;;;;;6.47;100.00;99306.98;1769092;80;20987;-81
2022/12/24 01:12:15;;;;;;;15.93;11.67;;;;;;;6.46;100.00;99306.14;1776491;80;21023;-81
2022/12/24 01:14:42;;;;;;;18.07;11.50;;;;;;;6.45;100.00;99311.39;1755431;79;21008;-82
2022/12/24 01:17:09;;;;;;;15.10;11.10;;;;;;;6.45;100.00;99302.28;1759017;80;21437;-82
2022/12/24 01:19:36;;;;;;;15.17;11.47;;;;;;;6.46;100.00;99294.89;1747881;81;21508;-82
2022/12/24 01:22:03;;;;;;;16.47;11.60;;;;;;;6.46;100.00;99289.22;1767466;80;21124;-81
2022/12/24 01:24:30;;;;;;;14.03;10.97;;;;;;;6.46;100.00;99294.42;1768443;80;21070;-82
2022/12/24 01:26:57;;;;;;;19.60;12.43;;;;;;;6.44;100.00;99291.02;1769924;80;21027;-82
2022/12/24 01:29:24;;;;;;;16.50;12.03;;;;;;;6.44;100.00;99296.23;1776327;80;21001;-82
2022/12/24 01:31:52;;;;;;;17.50;12.90;;;;;;;6.43;100.00;99291.10;1773630;80;21319;-82
2022/12/24 01:34:19;;;;;;;20.23;13.03;;;;;;;6.43;100.00;99294.55;1768409;80;21124;-82
2022/12/24 01:36:46;;;;;;;26.63;17.10;;;;;;;6.44;100.00;99289.72;1753801;80;21046;-82
2022/12/24 01:39:13;;;;;;;32.93;20.37;;;;;;;6.46;100.00;99291.83;1777028;80;21059;-82
2022/12/24 01:44:32;;;;;;;20.50;14.20;;;;;;;6.48;100.00;99277.43;1777030;80;21026;-82
2022/12/24 01:47:18;;;;;;;21.13;14.07;;;;;;;6.47;100.00;99280.49;1776614;79;21117;-82
2022/12/24 01:49:54;;;;;;;27.00;17.07;;;;;;;6.51;100.00;99282.52;1776958;79;21007;-82
2022/12/24 01:52:29;;;;;;;35.07;19.83;;;;;;;6.54;100.00;99282.43;1772168;79;21129;-82
2022/12/24 01:55:07;;;;;;;31.97;18.33;;;;;;;6.54;100.00;99284.16;1771587;80;21112;-82
2022/12/24 01:57:39;;;;;;;29.73;17.80;;;;;;;6.54;100.00;99286.76;1765594;80;21019;-82
2022/12/24 02:00:11;;;;;;;22.67;15.53;;;;;;;6.54;100.00;99291.54;1766652;80;21449;-82
2022/12/24 02:02:45;;;;;;;18.57;13.50;;;;;;;6.56;100.00;99286.25;1758862;79;21493;-82
2022/12/24 02:05:18;;;;;;;18.97;13.40;;;;;;;6.58;100.00;99292.27;1760062;80;21039;-82
2022/12/24 02:07:46;;;;;;;18.97;12.93;;;;;;;6.59;100.00;99299.16;1765032;80;21180;-81
2022/12/24 02:10:14;;;;;;;19.03;13.53;;;;;;;6.60;100.00;99296.50;1729922;79;21004;-81
2022/12/24 02:12:44;;;;;;;19.77;13.67;;;;;;;6.63;100.00;99298.14;1737367;79;21787;-82
2022/12/24 02:15:15;;;;;;;19.32;14.10;;;;;;;6.65;100.00;99294.58;1767591;79;20955;-82
2022/12/24 02:18:00;;;;;;;17.70;13.30;;;;;;;6.65;100.00;99296.30;1762901;79;21095;-82
2022/12/24 02:20:41;;;;;;;18.57;13.37;;;;;;;6.66;100.00;99300.63;1748185;80;21596;-82
2022/12/24 02:23:26;;;;;;;18.90;13.40;;;;;;;6.68;100.00;99294.91;1766789;80;22015;-82
2022/12/24 02:26:10;;;;;;;19.20;14.07;;;;;;;6.69;100.00;99291.39;1771591;79;21065;-82
2022/12/24 02:28:58;;;;;;;14.80;11.43;;;;;;;6.72;100.00;99293.88;1751218;80;20951;-83
2022/12/24 02:31:45;;;;;;;11.47;7.90;;;;;;;6.68;100.00;99287.10;1763030;79;21054;-84
2022/12/24 02:34:26;;;;;;;11.77;8.57;;;;;;;6.62;100.00;99281.68;1763259;80;20994;-83
2022/12/24 02:37:04;;;;;;;12.27;8.97;;;;;;;6.60;100.00;99280.04;1776526;80;21657;-83
2022/12/24 02:39:54;;;;;;;12.70;9.77;;;;;;;6.59;100.00;99278.33;1761048;79;21128;-83
2022/12/24 02:42:26;;;;;;;11.22;8.90;;;;;;;6.58;100.00;99276.64;1720937;80;21532;-83
2022/12/24 02:44:57;;;;;;;13.33;8.87;;;;;;;6.58;100.00;99284.45;1767342;80;21550;-83
2022/12/24 02:47:27;;;;;;;12.23;8.83;;;;;;;6.58;100.00;99287.89;1746340;80;21046;-83
2022/12/24 02:49:54;;;;;;;11.25;9.23;;;;;;;6.59;100.00;99288.73;1756433;80;21477;-83
2022/12/24 02:52:35;;;;;;;13.33;9.87;;;;;;;6.61;100.00;99282.56;1776768;80;21551;-83
2022/12/24 02:55:05;;;;;;;;;;;;;;;6.63;100.00;99285.13;1776792;80;20985;-83
2022/12/24 02:57:57;;;;;;;12.93;9.45;;;;;;;6.64;100.00;99286.35;1752928;80;26730;-83
2022/12/24 03:00:26;;;;;;;14.10;9.23;;;;;;;6.64;100.00;99289.41;1761003;80;21057;-83
2022/12/24 03:03:24;;;;;;;14.77;10.27;;;;;;;6.67;100.00;99286.69;1755249;80;21057;-83
2022/12/24 03:05:59;;;;;;;15.07;10.40;;;;;;;6.68;100.00;99297.06;1764106;80;22091;-83
2022/12/24 03:08:41;;;;;;;14.60;10.67;;;;;;;6.70;100.00;99298.28;1756530;80;20976;-83
2022/12/24 03:11:12;;;;;;;13.67;9.83;;;;;;;6.73;100.00;99292.95;1758543;80;20978;-83
2022/12/24 03:13:42;;;;;;;12.37;9.17;;;;;;;6.72;100.00;99295.63;1775071;80;21011;-83
2022/12/24 03:16:14;;;;;;;18.55;12.70;;;;;;;6.66;100.00;99296.27;1765435;80;21021;-83
2022/12/24 03:18:45;;;;;;;17.50;12.37;;;;;;;6.69;100.00;99296.60;1770205;80;21116;-83
2022/12/24 03:21:30;;;;;;;15.87;12.10;;;;;;;6.74;100.00;99294.67;1754041;80;21582;-83
2022/12/24 03:23:58;;;;;;;21.03;12.97;;;;;;;6.73;100.00;99294.25;1766933;80;21027;-83
2022/12/24 03:26:28;;;;;;;17.90;12.60;;;;;;;6.75;100.00;99291.61;1783444;80;21023;-83
2022/12/24 03:28:55;;;;;;;16.12;11.65;;;;;;;6.76;100.00;99294.16;1785572;80;21026;-83
2022/12/24 03:31:22;;;;;;;17.23;11.73;;;;;;;6.76;100.00;99301.10;1786954;80;21464;-84
2022/12/24 03:33:50;;;;;;;16.67;12.17;;;;;;;6.77;100.00;99302.81;1784124;80;21046;-83
2022/12/24 03:36:17;;;;;;;15.67;11.47;;;;;;;6.77;100.00;99301.52;1784023;80;21058;-84
2022/12/24 03:38:44;;;;;;;17.13;12.50;;;;;;;6.76;100.00;99300.67;1776101;80;21066;-84
2022/12/24 03:41:11;;;;;;;19.43;13.77;;;;;;;6.77;100.00;99301.05;1769545;80;21110;-83
2022/12/24 03:43:39;;;;;;;21.30;14.47;;;;;;;6.78;100.00;99302.73;1779064;80;21493;-83
2022/12/24 03:46:07;;;;;;;16.70;12.93;;;;;;;6.79;100.00;99310.09;1785115;80;21005;-82
2022/12/24 03:48:35;;;;;;;19.03;13.10;;;;;;;6.80;100.00;99311.35;1781598;80;20900;-83
2022/12/24 03:51:03;;;;;;;18.97;13.20;;;;;;;6.83;100.00;99316.90;1776034;80;21011;-83
2022/12/24 03:53:30;;;;;;;19.23;13.10;;;;;;;6.84;100.00;99314.22;1782046;80;21027;-83
2022/12/24 03:55:58;;;;;;;16.20;12.67;;;;;;;6.83;100.00;99317.73;1745703;80;22284;-83
2022/12/24 03:58:25;;;;;;;16.73;12.00;;;;;;;6.83;100.00;99315.13;1768880;80;21000;-82
2022/12/24 04:00:53;;;;;;;18.23;12.23;;;;;;;6.84;100.00;99320.73;1776497;80;21022;-82
2022/12/24 04:03:20;;;;;;;17.47;12.40;;;;;;;6.85;100.00;99318.53;1784579;80;21082;-83
2022/12/24 04:05:47;;;;;;;15.80;11.70;;;;;;;6.86;100.00;99318.92;1783202;80;21026;-82
2022/12/24 04:08:14;;;;;;;17.90;12.60;;;;;;;6.89;100.00;99320.56;1779998;80;21214;-82
2022/12/24 04:10:41;;;;;;;18.00;12.50;;;;;;;6.90;100.00;99324.42;1773116;80;21525;-82
2022/12/24 04:13:09;;;;;;;18.07;12.33;;;;;;;6.91;100.00;99323.50;1770870;80;21355;-82
2022/12/24 04:15:36;;;;;;;16.23;11.63;;;;;;;6.91;100.00;99324.80;1764238;80;20921;-82
2022/12/24 04:18:03;;;;;;;15.20;11.47;;;;;;;6.91;100.00;99333.08;1772160;79;21028;-82
2022/12/24 04:20:30;;;;;;;15.90;10.87;;;;;;;6.89;100.00;99334.88;1738869;80;21691;-82
2022/12/24 04:22:58;;;;;;;12.83;8.97;;;;;;;6.89;100.00;99338.79;1699181;83;21066;-82
2022/12/24 04:25:25;;;;;;;12.10;8.37;;;;;;;6.88;100.00;99335.80;1704530;83;21058;-82
2022/12/24 04:27:52;;;;;;;11.53;7.80;;;;;;;6.86;100.00;99340.22;1705314;83;21516;-81
2022/12/24 04:30:19;;;;;;;11.70;8.67;;;;;;;6.83;100.00;99345.55;1706442;83;21047;-81
2022/12/24 04:32:46;;;;;;;12.83;8.63;;;;;;;6.79;100.00;99340.92;1699909;83;21057;-81
2022/12/24 04:35:13;;;;;;;12.70;9.53;;;;;;;6.77;100.00;99347.94;1702714;83;21045;-82
2022/12/24 04:37:40;;;;;;;16.63;10.53;;;;;;;6.77;100.00;99340.58;1765891;80;21083;-82
2022/12/24 04:40:09;;;;;;;15.57;10.20;;;;;;;6.73;100.00;99341.59;1746996;80;21038;-82
2022/12/24 04:42:36;;;;;;;17.87;11.13;;;;;;;6.71;100.00;99344.27;1734552;82;21531;-82
2022/12/24 04:45:04;;;;;;;17.03;11.40;;;;;;;6.71;100.00;99349.48;1715471;83;22131;-82
2022/12/24 04:47:31;;;;;;;19.23;12.43;;;;;;;6.68;100.00;99349.14;1714304;83;21053;-82
2022/12/24 04:50:00;;;;;;;19.43;12.20;;;;;;;6.69;100.00;99349.98;1756045;80;21533;-82
2022/12/24 04:52:28;;;;;;;18.43;11.83;;;;;;;6.70;100.00;99352.97;1765366;80;21036;-82
2022/12/24 04:54:55;;;;;;;19.00;12.20;;;;;;;6.72;100.00;99357.67;1774409;80;21024;-83
2022/12/24 04:57:22;;;;;;;16.47;11.30;;;;;;;6.74;100.00;99361.53;1775248;80;21105;-82
2022/12/24 04:59:49;;;;;;;21.10;11.43;;;;;;;6.74;100.00;99363.68;1775572;80;21043;-82
2022/12/24 05:02:16;;;;;;;20.23;12.07;;;;;;;6.75;100.00;99365.37;1765369;80;21050;-82
2022/12/24 05:04:43;;;;;;;20.60;12.57;;;;;;;6.77;100.00;99371.83;1769209;80;21574;-82
2022/12/24 05:07:10;;;;;;;24.40;14.50;;;;;;;6.76;100.00;99371.42;1772199;80;20967;-82
2022/12/24 05:09:37;;;;;;;23.33;14.77;;;;;;;6.77;100.00;99382.25;1752911;80;21848;-82
2022/12/24 05:12:06;;;;;;;22.47;14.80;;;;;;;6.76;100.00;99375.33;1752326;80;21483;-82
2022/12/24 05:14:32;;;;;;;21.90;14.67;;;;;;;6.79;100.00;99379.11;1765151;80;21035;-82
2022/12/24 05:16:59;;;;;;;26.07;15.63;;;;;;;6.78;100.00;99390.45;1751878;80;21115;-82
2022/12/24 05:19:26;;;;;;;24.80;16.03;;;;;;;6.79;100.00;99389.10;1769383;80;21585;-82
2022/12/24 05:27:25;;;;;;;20.00;13.23;;;;;;;6.83;100.00;99399.78;1774734;80;21043;-82
2022/12/24 05:29:52;;;;;;;32.77;17.40;;;;;;;6.84;100.00;99404.08;1774407;80;20988;-82
2022/12/24 05:32:19;;;;;;;29.47;16.93;;;;;;;6.85;100.00;99407.55;1767427;80;21130;-82
2022/12/24 05:34:47;;;;;;;28.10;16.93;;;;;;;6.85;100.00;99404.95;1740180;80;21133;-82
2022/12/24 05:37:15;;;;;;;28.13;16.87;;;;;;;6.86;100.00;99409.24;1761684;80;20972;-82
2022/12/24 05:39:43;;;;;;;24.80;15.87;;;;;;;6.83;100.00;99413.27;1766597;80;22091;-82
2022/12/24 05:42:10;;;;;;;32.30;18.60;;;;;;;6.80;100.00;99418.14;1749348;79;21020;-82
2022/12/24 05:44:37;;;;;;;41.90;20.50;;;;;;;6.77;100.00;99420.02;1775810;80;21031;-82
2022/12/24 05:47:04;;;;;;;36.07;20.20;;;;;;;6.76;100.00;99419.59;1775009;80;21171;-82
2022/12/24 05:49:31;;;;;;;19.10;13.23;;;;;;;6.76;100.00;99430.89;1774486;80;21552;-82
2022/12/24 05:51:58;;;;;;;19.40;13.17;;;;;;;6.75;100.00;99431.77;1747191;80;21092;-82
2022/12/24 05:54:26;;;;;;;17.03;11.80;;;;;;;6.80;100.00;99440.73;1776000;80;21079;-82
2022/12/24 05:56:53;;;;;;;15.60;11.40;;;;;;;6.82;100.00;99444.98;1774558;80;21587;-82
2022/12/24 05:59:20;;;;;;;14.70;10.13;;;;;;;6.83;100.00;99448.43;1776169;80;21124;-82
2022/12/24 06:01:47;;;;;;;15.07;10.30;;;;;;;6.80;100.00;99450.69;1750468;80;21542;-81
2022/12/24 06:04:14;;;;;;;17.13;11.47;;;;;;;6.78;100.00;99456.40;1756251;80;21055;-81
2022/12/24 06:06:41;;;;;;;15.77;11.40;;;;;;;6.78;100.00;99464.67;1746048;80;21488;-82
2022/12/24 06:09:09;;;;;;;18.33;13.13;;;;;;;6.73;100.00;99470.04;1770220;80;20992;-82
2022/12/24 06:11:36;;;;;;;21.00;14.10;;;;;;;6.68;100.00;99478.03;1761652;80;21094;-82
2022/12/24 06:14:03;;;;;;;22.27;15.30;;;;;;;6.62;100.00;99481.30;1740263;80;21573;-82
2022/12/24 06:16:30;;;;;;;24.43;17.00;;;;;;;6.55;100.00;99482.43;1774516;80;20988;-82
2022/12/24 06:18:57;;;;;;;26.10;17.07;;;;;;;6.49;100.00;99496.52;1774640;79;21032;-82
2022/12/24 06:21:24;;;;;;;24.80;17.60;;;;;;;6.44;100.00;99495.36;1765369;80;20993;-82
2022/12/24 06:23:51;;;;;;;26.03;17.57;;;;;;;6.40;100.00;99504.20;1774752;80;21162;-82
2022/12/24 06:26:22;;;;;;;24.23;16.63;;;;;;;6.35;100.00;99516.52;1774081;80;21035;-82
2022/12/24 06:28:50;;;;;;;26.68;16.20;;;;;;;6.31;100.00;99520.56;1774414;80;21493;-82
2022/12/24 06:31:21;;;;;;;31.47;18.83;;;;;;;6.25;100.00;99515.95;1772470;80;21029;-82
2022/12/24 06:33:50;;;;;;;29.73;18.17;;;;;;;6.22;100.00;99525.16;1768340;80;21036;-82
2022/12/24 06:36:23;;;;;;;27.43;17.63;;;;;;;6.19;100.00;99534.83;1765323;80;21132;-82
2022/12/24 06:38:51;;;;;;;25.87;17.17;;;;;;;6.15;100.00;99535.39;1771205;80;21007;-82
2022/12/24 06:41:20;;;;;;;27.37;17.97;;;;;;;6.14;100.00;99538.03;1746060;80;22107;-82
2022/12/24 06:43:50;;;;;;;23.73;16.87;;;;;;;6.14;100.00;99541.94;1771355;80;21545;-82
2022/12/24 06:46:19;;;;;;;24.13;16.90;;;;;;;6.13;100.00;99550.20;1774766;80;21015;-82
2022/12/24 06:48:47;;;;;;;23.43;16.23;;;;;;;6.12;100.00;99547.62;1774784;80;21133;-82
2022/12/24 06:51:18;;;;;;;21.73;14.93;;;;;;;6.10;100.00;99554.20;1773170;80;21036;-84
2022/12/24 06:53:49;;;;;;;21.63;15.23;;;;;;;6.09;100.00;99554.23;1766286;80;21026;-84
2022/12/24 06:56:30;;;;;;;24.45;15.40;;;;;;;6.09;100.00;99564.64;1766370;80;21038;-83
2022/12/24 06:58:57;;;;;;;29.00;18.17;;;;;;;6.06;100.00;99563.45;1765221;80;21061;-76
2022/12/24 07:01:25;;;;;;;36.63;22.67;;;;;;;6.06;100.00;99578.59;1768162;80;21224;-75
2022/12/24 07:03:52;;;;;;;25.07;17.70;;;;;;;6.07;100.00;99584.22;1766441;80;21039;-76
2022/12/24 07:06:27;;;;;;;22.57;16.37;;;;;;;6.06;100.00;99586.41;1771145;80;21479;-79
2022/12/24 07:08:54;;;;;;;24.13;15.60;;;;;;;6.05;100.00;99583.41;1766755;80;20992;-79
2022/12/24 07:11:22;;;;;;;31.03;17.07;;;;;;;6.05;100.00;99594.27;1770024;80;21555;-74
2022/12/24 07:13:49;;;;;;;23.90;16.03;;;;;;;5.98;100.00;99600.94;1772549;80;21123;-81
2022/12/24 07:16:17;;;;;;;21.80;15.53;;;;;;;5.98;100.00;99614.41;1769210;80;21034;-79
2022/12/24 07:18:44;;;;;;;20.77;14.27;;;;;;;5.98;100.00;99626.95;1771233;79;20908;-71
2022/12/24 07:21:11;;;;;;;20.27;14.40;;;;;;;5.99;100.00;99635.18;1765505;80;21583;-74
2022/12/24 07:23:38;;;;;;;24.17;14.90;;;;;;;5.96;100.00;99634.44;1775758;79;21002;-78
2022/12/24 07:26:06;;;;;;;19.90;14.83;;;;;;;5.95;100.00;99641.81;1770771;80;21510;-78
2022/12/24 07:28:33;;;;;;;21.40;14.37;;;;;;;5.97;100.00;99647.83;1770850;80;20955;-78
2022/12/24 07:31:00;;;;;;;19.83;13.60;;;;;;;5.98;100.00;99650.37;1770009;80;21034;-78
2022/12/24 07:33:28;;;;;;;20.17;13.40;;;;;;;5.97;100.00;99659.08;1768905;80;21835;-76
2022/12/24 07:36:04;;;;;;;20.20;14.20;;;;;;;5.95;100.00;99659.56;1771128;80;21611;-74
2022/12/24 07:38:32;;;;;;;20.07;13.97;;;;;;;5.95;100.00;99664.77;1744984;80;21128;-75
2022/12/24 07:41:00;;;;;;;22.70;14.20;;;;;;;5.94;100.00;99670.03;1771328;80;21129;-76
2022/12/24 07:43:28;;;;;;;21.33;14.63;;;;;;;5.94;100.00;99684.34;1767286;80;21399;-77
2022/12/24 07:45:57;;;;;;;19.80;13.80;;;;;;;5.93;100.00;99683.88;1770162;80;21019;-76
2022/12/24 07:48:26;;;;;;;20.60;13.90;;;;;;;5.93;100.00;99690.38;1771850;79;21038;-76
2022/12/24 07:50:55;;;;;;;21.43;13.83;;;;;;;5.92;100.00;99701.25;1769799;79;21079;-76
2022/12/24 07:53:23;;;;;;;22.50;14.77;;;;;;;5.94;100.00;99706.45;1767268;80;21062;-75
2022/12/24 07:55:50;;;;;;;23.40;15.80;;;;;;;5.97;100.00;99711.56;1768718;80;21058;-75
2022/12/24 07:58:17;;;;;;;23.30;14.43;;;;;;;5.98;100.00;99711.50;1767072;80;21027;-75
2022/12/24 08:00:44;;;;;;;26.87;15.27;;;;;;;5.99;100.00;99716.27;1768421;80;21094;-75
2022/12/24 08:03:19;;;;;;;31.70;18.13;;;;;;;6.01;100.00;99717.06;1768537;79;21981;-75
2022/12/24 08:05:47;;;;;;;35.23;18.67;;;;;;;5.99;100.00;99724.92;1771225;80;21166;-74
2022/12/24 08:08:14;;;;;;;31.53;17.90;;;;;;;6.00;100.00;99731.82;1767375;80;21153;-80
2022/12/24 08:10:44;;;;;;;29.53;17.47;;;;;;;6.00;100.00;99734.42;1771561;79;21051;-77
2022/12/24 08:13:11;;;;;;;27.70;17.07;;;;;;;6.01;100.00;99741.35;1769787;79;21031;-74
2022/12/24 08:15:38;;;;;;;25.10;15.77;;;;;;;6.04;100.00;99749.48;1772396;80;21779;-77
2022/12/24 08:18:05;;;;;;;27.77;17.27;;;;;;;6.03;100.00;99746.49;1768907;80;20990;-81
2022/12/24 08:20:32;;;;;;;30.07;18.20;;;;;;;6.02;100.00;99758.66;1766389;79;21557;-76
2022/12/24 08:23:00;;;;;;;26.10;15.90;;;;;;;6.02;100.00;99770.36;1768297;81;21046;-75
2022/12/24 08:25:27;;;;;;;26.70;15.77;;;;;;;6.05;100.00;99772.02;1768298;79;21061;-74
2022/12/24 08:27:54;;;;;;;26.27;15.37;;;;;;;6.06;100.00;99766.37;1767621;81;21152;-78
2022/12/24 08:30:21;;;;;;;30.10;17.13;;;;;;;6.08;100.00;99767.19;1767073;80;21054;-77
2022/12/24 08:32:48;;;;;;;27.27;16.57;;;;;;;6.10;100.00;99777.11;1720167;80;21523;-77
2022/12/24 08:35:15;;;;;;;24.13;15.13;;;;;;;6.13;100.00;99779.16;1769278;80;21520;-76
2022/12/24 08:37:42;;;;;;;22.10;14.53;;;;;;;6.19;100.00;99778.13;1767857;79;21070;-76
2022/12/24 08:40:11;;;;;;;25.77;17.13;;;;;;;6.21;100.00;99781.09;1767601;79;21724;-77
2022/12/24 08:42:38;;;;;;;20.23;12.90;;;;;;;6.23;100.00;99790.14;1768463;80;21007;-76
2022/12/24 08:45:08;;;;;;;18.03;12.80;;;;;;;6.24;100.00;99790.11;1768732;80;21685;-76
2022/12/24 08:47:35;;;;;;;16.23;11.03;;;;;;;6.25;100.00;99792.27;1767762;81;21130;-76
2022/12/24 08:50:05;;;;;;;15.10;10.37;;;;;;;6.27;100.00;99791.78;1768787;81;21030;-86
2022/12/24 08:52:32;;;;;;;15.00;11.15;;;;;;;6.27;100.00;99806.09;1768524;80;22492;-81
2022/12/24 08:54:59;;;;;;;18.20;11.83;;;;;;;6.25;100.00;99813.92;1768858;81;21030;-76
2022/12/24 08:57:27;;;;;;;15.20;10.70;;;;;;;6.27;100.00;99815.20;1767621;81;20987;-77
2022/12/24 08:59:53;;;;;;;15.53;10.57;;;;;;;6.29;100.00;99826.42;1768734;81;21105;-72
2022/12/24 09:02:21;;;;;;;14.83;8.80;;;;;;;6.31;100.00;99828.52;1768849;80;22067;-71
2022/12/24 09:04:48;;;;;;;14.03;9.27;;;;;;;6.30;100.00;99832.48;1769294;79;21148;-74
2022/12/24 09:07:15;;;;;;;21.93;13.93;;;;;;;6.27;100.00;99832.11;1755675;81;21022;-76
2022/12/24 09:09:42;;;;;;;15.70;10.33;;;;;;;6.24;100.00;99838.71;1758549;79;21003;-78
2022/12/24 09:12:10;;;;;;;22.47;15.00;;;;;;;6.22;100.00;99839.20;1761918;80;21018;-74
2022/12/24 09:14:37;;;;;;;33.37;22.30;;;;;;;6.22;100.00;99838.74;1767220;80;21046;-74
2022/12/24 09:17:04;;;;;;;21.90;15.30;;;;;;;6.22;100.00;99838.74;1753916;80;21850;-76
2022/12/24 09:19:33;;;;;;;14.93;11.00;;;;;;;6.23;100.00;99837.83;1766729;80;21548;-76
2022/12/24 09:22:03;;;;;;;17.55;11.85;;;;;;;6.22;100.00;99849.15;1759234;80;21551;-81
2022/12/24 09:24:31;;;;;;;15.23;10.73;;;;;;;6.23;100.00;99854.75;1760151;78;21091;-77
2022/12/24 09:26:58;;;;;;;16.10;10.23;;;;;;;6.25;100.00;99850.36;1774668;80;21000;-77
2022/12/24 09:29:25;;;;;;;15.37;9.53;;;;;;;6.26;100.00;99853.81;1759751;78;21160;-77
2022/12/24 09:31:53;;;;;;;22.53;13.60;;;;;;;6.29;100.00;99855.48;1756725;78;21003;-78
2022/12/24 09:34:21;;;;;;;24.37;16.67;;;;;;;6.27;100.00;99859.44;1763329;80;21014;-79
2022/12/24 09:36:48;;;;;;;27.57;15.53;;;;;;;6.23;100.00;99859.95;1742899;82;21478;-78
2022/12/24 09:39:15;;;;;;;32.53;16.40;;;;;;;6.19;100.00;99869.21;1770693;80;21013;-78
2022/12/24 09:42:06;;;;;;;30.00;15.73;;;;;;;6.21;100.00;99877.84;1775805;80;21098;-78
2022/12/24 09:44:50;;;;;;;16.03;10.37;;;;;;;6.18;100.00;99883.09;1777123;80;21045;-76
2022/12/24 09:47:38;;;;;;;20.50;11.93;;;;;;;6.12;100.00;99885.88;1772666;80;21038;-75
2022/12/24 09:50:27;;;;;;;23.47;13.37;;;;;;;6.08;100.00;99889.47;1764389;79;21034;-75
2022/12/24 09:52:57;;;;;;;24.23;14.37;;;;;;;6.03;100.00;99891.72;1770088;80;20987;-81
2022/12/24 09:55:42;;;;;;;35.58;21.95;;;;;;;6.02;100.00;99890.48;1769820;80;21521;-75
2022/12/24 09:58:14;;;;;;;85.90;55.10;;;;;;;6.02;100.00;99903.04;1784882;80;21307;-75
2022/12/24 10:00:42;;;;;;;59.23;33.93;;;;;;;6.01;100.00;99904.36;1777265;78;21031;-75
2022/12/24 10:03:15;;;;;;;42.13;26.20;;;;;;;6.03;100.00;99899.98;1779510;80;21550;-75
2022/12/24 10:06:15;;;;;;;40.60;26.93;;;;;;;6.02;100.00;99908.69;1767885;80;20991;-75
2022/12/24 10:09:05;;;;;;;30.17;18.10;;;;;;;6.04;100.00;99904.28;1767923;80;21141;-78
2022/12/24 10:11:54;;;;;;;38.13;16.60;;;;;;;6.06;100.00;99907.70;1761465;78;21000;-75
2022/12/24 10:14:45;;;;;;;22.97;15.93;;;;;;;6.08;100.00;99910.28;1760041;78;21030;-76
2022/12/24 10:17:17;;;;;;;27.90;19.20;;;;;;;6.06;100.00;99916.81;1776790;79;20999;-77
2022/12/24 10:20:12;;;;;;;30.30;23.20;;;;;;;6.07;100.00;99928.95;1767689;79;20985;-79
2022/12/24 10:22:48;;;;;;;28.10;20.40;;;;;;;6.07;100.00;99930.67;1749648;80;21178;-77
2022/12/24 10:25:29;;;;;;;29.87;14.53;;;;;;;6.09;100.00;99927.59;1745592;80;21544;-79
2022/12/24 10:28:00;;;;;;;20.50;16.37;;;;;;;6.13;100.00;99933.14;1777094;80;21086;-75
2022/12/24 10:30:27;;;;;;;18.93;13.00;;;;;;;6.17;100.00;99935.59;1776846;80;21043;-82
2022/12/24 10:32:55;;;;;;;17.27;13.07;;;;;;;6.20;100.00;99942.02;1775494;80;21023;-76
2022/12/24 10:35:33;;;;;;;16.70;11.90;;;;;;;6.24;100.00;99948.02;1761266;79;22035;-81
2022/12/24 10:38:01;;;;;;;17.63;11.40;;;;;;;6.23;100.00;99951.49;1760611;80;21027;-76
2022/12/24 10:40:33;;;;;;;15.87;11.60;;;;;;;6.24;100.00;99953.22;1771693;80;21460;-77
2022/12/24 10:43:01;;;;;;;19.73;15.47;;;;;;;6.27;100.00;99955.73;1776664;80;21820;-82
2022/12/24 10:45:38;;;;;;;19.63;16.50;;;;;;;6.31;100.00;99961.25;1756083;80;20986;-78
2022/12/24 10:48:10;;;;;;;23.93;17.60;;;;;;;6.36;100.00;99955.94;1765859;79;21107;-75
2022/12/24 10:50:46;;;;;;;23.00;14.70;;;;;;;6.38;100.00;99958.06;1769971;80;20990;-75
2022/12/24 10:53:34;;;;;;;27.60;16.10;;;;;;;6.39;100.00;99968.87;1765928;80;21074;-82
2022/12/24 10:56:08;;;;;;;18.73;13.37;;;;;;;6.41;100.00;99965.78;1770601;80;21515;-80
2022/12/24 10:58:36;;;;;;;19.30;12.63;;;;;;;6.42;100.00;99971.38;1765510;79;21130;-79
2022/12/24 11:01:04;;;;;;;18.57;12.90;;;;;;;6.39;100.00;99974.92;1749219;79;21937;-78
2022/12/24 11:03:35;;;;;;;17.03;11.83;;;;;;;6.43;100.00;99987.43;1767109;80;21050;-80
2022/12/24 11:06:13;;;;;;;14.47;11.33;;;;;;;6.42;100.00;99985.25;1764417;79;21030;-79
2022/12/24 11:08:43;;;;;;;16.73;12.37;;;;;;;6.42;100.00;99981.34;1765584;80;22113;-79
2022/12/24 11:11:20;;;;;;;24.67;16.65;;;;;;;6.45;100.00;99992.13;1764966;79;22383;-78
2022/12/24 11:13:55;;;;;;;20.27;12.73;;;;;;;6.48;100.00;99994.22;1766533;81;21116;-79
2022/12/24 11:16:34;;;;;;;23.47;14.67;;;;;;;6.55;100.00;99998.80;1766204;81;21121;-80
2022/12/24 11:19:05;;;;;;;23.87;13.33;;;;;;;6.59;100.00;100004.78;1769152;80;21059;-77
2022/12/24 11:21:39;;;;;;;25.50;14.90;;;;;;;6.62;100.00;100005.98;1767320;80;21082;-78
2022/12/24 11:24:30;;;;;;;22.10;14.10;;;;;;;6.64;100.00;100005.05;1753878;80;21063;-77
2022/12/24 11:27:20;;;;;;;20.02;12.00;;;;;;;6.69;100.00;99999.28;1770255;80;21124;-76
2022/12/24 11:29:47;;;;;;;14.20;8.88;;;;;;;6.77;100.00;100004.28;1702983;82;27547;-76
2022/12/24 11:32:18;;;;;;;10.30;7.50;;;;;;;6.89;100.00;100003.08;1711323;82;20998;-80
2022/12/24 11:34:46;;;;;;;9.63;7.10;;;;;;;6.98;100.00;100006.72;1710024;82;21173;-76
2022/12/24 11:37:21;;;;;;;10.30;6.63;;;;;;;7.03;100.00;100011.35;1710984;82;21536;-71
2022/12/24 11:40:01;;;;;;;7.77;6.33;;;;;;;7.08;100.00;100002.11;1711399;82;21302;-76
2022/12/24 11:42:36;;;;;;;5.80;4.85;;;;;;;7.10;100.00;100002.92;1710400;82;22469;-74
2022/12/24 11:45:18;;;;;;;16.97;9.63;;;;;;;7.05;100.00;100004.80;1711479;83;21130;-76